createdAt,value
2018-10-02T00:06:49.000Z,18.46
2018-10-02T00:16:49.000Z,18.43
2018-10-02T00:26:49.000Z,18.4
2018-10-02T00:36:53.000Z,18.37
2018-10-02T00:46:49.000Z,18.36
2018-10-02T00:56:49.000Z,18.32
2018-10-02T01:06:49.000Z,18.32
2018-10-02T01:16:49.000Z,18.29
2018-10-02T01:26:49.000Z,18.26
2018-10-02T01:36:49.000Z,18.24
2018-10-02T01:46:49.000Z,18.23
2018-10-02T01:56:49.000Z,18.21
2018-10-02T02:06:49.000Z,18.2
2018-10-02T02:16:50.000Z,18.18
2018-10-02T02:26:49.000Z,18.17
2018-10-02T02:36:49.000Z,18.14
2018-10-02T02:46:49.000Z,18.13
2018-10-02T02:56:49.000Z,18.12
2018-10-02T03:06:50.000Z,18.1
2018-10-02T03:16:50.000Z,18.07
2018-10-02T03:26:50.000Z,18.06
2018-10-02T03:36:50.000Z,18.05
2018-10-02T03:46:50.000Z,18.04
2018-10-02T03:56:50.000Z,18.01
2018-10-02T04:06:50.000Z,18.01
2018-10-02T04:16:50.000Z,18
2018-10-02T04:26:50.000Z,17.99
2018-10-02T04:36:50.000Z,17.99
2018-10-02T04:46:50.000Z,17.99
2018-10-02T04:56:50.000Z,17.98
2018-10-02T05:06:50.000Z,17.98
2018-10-02T05:16:50.000Z,17.98
2018-10-02T05:26:50.000Z,17.97
2018-10-02T05:36:50.000Z,17.97
2018-10-02T05:46:50.000Z,17.99
2018-10-02T05:56:50.000Z,17.95
2018-10-02T06:06:50.000Z,17.96
2018-10-02T06:16:50.000Z,17.94
2018-10-02T06:26:50.000Z,17.94
2018-10-02T06:36:50.000Z,17.93
2018-10-02T06:46:50.000Z,17.92
2018-10-02T06:56:50.000Z,17.9
2018-10-02T07:06:50.000Z,17.93
2018-10-02T07:16:50.000Z,17.94
2018-10-02T07:26:50.000Z,17.93
2018-10-02T07:36:50.000Z,17.96
2018-10-02T07:46:50.000Z,17.95
2018-10-02T07:56:50.000Z,17.95
2018-10-02T08:06:50.000Z,17.98
2018-10-02T08:16:50.000Z,17.97
2018-10-02T08:26:50.000Z,17.99
2018-10-02T08:36:50.000Z,17.96
2018-10-02T08:46:50.000Z,17.96
2018-10-02T08:56:50.000Z,17.96
2018-10-02T09:06:50.000Z,17.98
2018-10-02T09:16:50.000Z,17.99
2018-10-02T09:26:50.000Z,17.96
2018-10-02T09:36:50.000Z,17.98
2018-10-02T09:46:50.000Z,18
2018-10-02T09:56:50.000Z,18
2018-10-02T10:06:50.000Z,18
2018-10-02T10:16:50.000Z,18.03
2018-10-02T10:26:50.000Z,18.01
2018-10-02T10:36:50.000Z,18.01
2018-10-02T10:46:50.000Z,18.03
2018-10-02T10:56:50.000Z,18.05
2018-10-02T11:06:50.000Z,18.07
2018-10-02T11:16:51.000Z,18.08
2018-10-02T11:26:50.000Z,18.15
2018-10-02T11:36:50.000Z,18.17
2018-10-02T11:46:51.000Z,18.15
2018-10-02T11:56:51.000Z,18.18
2018-10-02T12:06:51.000Z,18.21
2018-10-02T12:16:51.000Z,18.24
2018-10-02T12:26:51.000Z,18.25
2018-10-02T12:36:51.000Z,18.25
2018-10-02T12:46:52.000Z,18.3
2018-10-02T12:56:51.000Z,18.33
2018-10-02T13:06:51.000Z,18.4
2018-10-02T13:16:51.000Z,18.38
2018-10-02T13:26:53.000Z,18.42
2018-10-02T13:36:51.000Z,18.42
2018-10-02T13:46:51.000Z,18.45
2018-10-02T13:56:51.000Z,18.48
2018-10-02T14:06:51.000Z,18.54
2018-10-02T14:16:51.000Z,18.6
2018-10-02T14:26:51.000Z,18.63
2018-10-02T14:36:51.000Z,18.68
2018-10-02T14:46:51.000Z,18.77
2018-10-02T14:56:51.000Z,18.8
2018-10-02T15:06:52.000Z,18.77
2018-10-02T15:16:51.000Z,18.79
2018-10-02T15:26:51.000Z,18.79
2018-10-02T15:36:51.000Z,18.84
2018-10-02T15:46:52.000Z,18.89
2018-10-02T15:56:52.000Z,18.95
2018-10-02T16:06:51.000Z,19
2018-10-02T16:16:51.000Z,19
2018-10-02T16:26:51.000Z,18.99
2018-10-02T16:36:51.000Z,19.04
2018-10-02T16:46:51.000Z,19.01
2018-10-02T16:56:51.000Z,19.01
2018-10-02T17:06:51.000Z,19.02
2018-10-02T17:16:51.000Z,19.05
2018-10-02T17:26:51.000Z,19.03
2018-10-02T17:36:51.000Z,19.04
2018-10-02T17:46:51.000Z,19.05
2018-10-02T17:56:51.000Z,19.05
2018-10-02T18:06:51.000Z,19
2018-10-02T18:16:51.000Z,18.99
2018-10-02T18:26:51.000Z,18.98
2018-10-02T18:36:51.000Z,18.95
2018-10-02T18:46:51.000Z,18.94
2018-10-02T18:56:51.000Z,18.93
2018-10-02T19:06:51.000Z,18.92
2018-10-02T19:16:51.000Z,18.92
2018-10-02T19:26:51.000Z,18.87
2018-10-02T19:36:52.000Z,18.87
2018-10-02T19:46:52.000Z,18.85
2018-10-02T19:56:51.000Z,18.84
2018-10-02T20:06:52.000Z,18.83
2018-10-02T20:16:52.000Z,18.81
2018-10-02T20:26:52.000Z,18.81
2018-10-02T20:36:52.000Z,18.81
2018-10-02T20:46:52.000Z,18.8
2018-10-02T20:56:52.000Z,18.8
2018-10-02T21:06:52.000Z,18.79
2018-10-02T21:16:52.000Z,18.77
2018-10-02T21:26:52.000Z,18.83
2018-10-02T21:36:52.000Z,18.83
2018-10-02T21:46:52.000Z,18.84
2018-10-02T21:56:52.000Z,18.84
2018-10-02T22:06:52.000Z,18.86
2018-10-02T22:16:52.000Z,19.08
2018-10-02T22:26:52.000Z,18.92
2018-10-02T22:36:52.000Z,18.92
2018-10-02T22:46:52.000Z,18.94
2018-10-02T22:56:52.000Z,18.92
2018-10-02T23:06:52.000Z,18.95
2018-10-02T23:16:52.000Z,18.92
2018-10-02T23:26:52.000Z,18.95
2018-10-02T23:36:52.000Z,18.88
2018-10-02T23:46:52.000Z,18.82
